createdAt,value
2022-07-25T00:04:04.818Z,28.69
2022-07-25T00:09:02.105Z,28.58
2022-07-25T00:13:59.189Z,28.37
2022-07-25T00:18:56.771Z,28.04
2022-07-25T00:23:54.029Z,27.97
2022-07-25T00:28:54.347Z,27.46
2022-07-25T00:33:51.274Z,27.47
2022-07-25T00:38:49.151Z,27.58
2022-07-25T00:43:46.386Z,27.02
2022-07-25T00:48:43.646Z,26.63
2022-07-25T00:53:40.514Z,26.48
2022-07-25T00:58:38.143Z,26.85
2022-07-25T01:03:35.254Z,26.93
2022-07-25T01:08:32.273Z,27.07
2022-07-25T01:13:31.886Z,27.00
2022-07-25T01:18:29.529Z,26.53
2022-07-25T01:23:29.803Z,26.48
2022-07-25T01:28:28.681Z,26.39
2022-07-25T01:33:25.668Z,26.21
2022-07-25T01:38:22.473Z,26.33
2022-07-25T01:43:20.107Z,25.98
2022-07-25T01:48:19.921Z,26.67
2022-07-25T01:53:17.096Z,26.86
2022-07-25T01:58:14.194Z,26.79
2022-07-25T02:03:30.277Z,26.98
2022-07-25T02:08:27.543Z,27.36
2022-07-25T02:13:26.761Z,27.56
2022-07-25T02:18:25.057Z,27.83
2022-07-25T02:23:22.244Z,28.15
2022-07-25T02:28:19.207Z,28.20
2022-07-25T02:33:18.500Z,28.23
2022-07-25T02:38:19.258Z,28.56
2022-07-25T02:43:32.596Z,28.63
2022-07-25T02:48:29.726Z,28.56
2022-07-25T02:53:54.384Z,28.43
2022-07-25T02:58:44.585Z,28.45
2022-07-25T03:03:46.624Z,28.31
2022-07-25T03:08:44.447Z,28.29
2022-07-25T03:13:43.288Z,28.24
2022-07-25T03:18:40.163Z,27.88
2022-07-25T03:23:40.161Z,27.93
2022-07-25T03:28:38.030Z,27.93
2022-07-25T03:33:35.100Z,27.57
2022-07-25T03:38:32.055Z,27.78
2022-07-25T03:43:31.597Z,28.05
2022-07-25T03:48:29.505Z,28.07
2022-07-25T03:53:26.531Z,28.04
2022-07-25T03:58:23.699Z,28.47
2022-07-25T04:03:29.856Z,28.68
2022-07-25T04:08:27.509Z,29.14
2022-07-25T04:13:24.579Z,29.41
2022-07-25T04:18:25.205Z,29.51
2022-07-25T04:23:25.841Z,29.27
2022-07-25T04:28:23.468Z,29.19
2022-07-25T04:33:22.593Z,28.92
2022-07-25T04:38:19.624Z,28.92
2022-07-25T04:43:17.158Z,28.92
2022-07-25T04:48:14.872Z,28.86
2022-07-25T04:53:11.793Z,29.10
2022-07-25T04:58:10.358Z,29.02
2022-07-25T05:03:08.826Z,29.05
2022-07-25T05:08:06.647Z,28.23
2022-07-25T05:13:03.738Z,28.35
2022-07-25T05:18:03.688Z,27.67
2022-07-25T05:23:00.779Z,28.10
2022-07-25T05:27:59.136Z,28.01
2022-07-25T05:32:56.152Z,27.80
2022-07-25T05:37:57.765Z,28.06
2022-07-25T05:43:20.848Z,27.74
2022-07-25T05:48:55.582Z,28.02
2022-07-25T05:53:56.274Z,27.45
2022-07-25T05:59:02.848Z,27.12
2022-07-25T06:04:05.059Z,27.31
2022-07-25T06:09:19.561Z,27.06
2022-07-25T06:14:18.681Z,27.24
2022-07-25T06:19:18.407Z,27.23
2022-07-25T06:24:16.070Z,27.60
2022-07-25T06:29:14.316Z,27.38
2022-07-25T06:34:11.532Z,26.97
2022-07-25T06:39:12.800Z,26.99
2022-07-25T06:44:14.831Z,27.38
2022-07-25T06:49:12.199Z,27.88
2022-07-25T06:54:11.103Z,27.39
2022-07-25T06:59:11.509Z,27.62
2022-07-25T07:04:23.917Z,27.60
2022-07-25T07:09:28.547Z,27.62
2022-07-25T07:14:26.960Z,27.39
2022-07-25T07:19:27.402Z,27.69
2022-07-25T07:24:26.503Z,27.50
2022-07-25T07:29:27.020Z,27.58
2022-07-25T07:34:29.855Z,27.75
2022-07-25T07:39:29.534Z,27.94
2022-07-25T07:44:26.547Z,27.93
2022-07-25T07:49:24.653Z,27.84
2022-07-25T07:54:41.666Z,27.91
2022-07-25T07:59:41.196Z,28.12
2022-07-25T08:04:41.491Z,28.29
2022-07-25T08:09:39.324Z,28.12
2022-07-25T08:14:56.235Z,28.06
2022-07-25T08:20:27.586Z,28.47
2022-07-25T08:25:22.924Z,28.83
2022-07-25T08:30:20.521Z,29.18
2022-07-25T08:35:19.371Z,28.92
2022-07-25T08:40:18.437Z,28.11
2022-07-25T08:45:26.682Z,28.48
2022-07-25T08:50:42.963Z,28.96
2022-07-25T08:55:45.732Z,28.68
2022-07-25T09:00:52.778Z,28.66
2022-07-25T09:05:50.337Z,29.36
2022-07-25T09:10:52.357Z,29.56
2022-07-25T09:15:50.067Z,29.82
2022-07-25T09:20:48.635Z,29.86
2022-07-25T09:25:45.652Z,30.18
2022-07-25T09:31:04.929Z,30.46
2022-07-25T09:36:14.435Z,30.18
2022-07-25T09:41:17.649Z,29.76
2022-07-25T09:46:30.018Z,29.70
2022-07-25T09:51:27.349Z,29.76
2022-07-25T09:56:26.932Z,30.26
2022-07-25T10:01:37.303Z,30.18
2022-07-25T10:06:41.348Z,30.33
2022-07-25T10:11:40.598Z,30.38
2022-07-25T10:16:49.655Z,29.85
2022-07-25T10:21:54.697Z,29.64
2022-07-25T10:26:52.555Z,29.77
2022-07-25T10:31:53.126Z,29.59
2022-07-25T10:36:51.254Z,29.68
2022-07-25T10:41:51.833Z,29.98
2022-07-25T10:46:49.780Z,30.58
2022-07-25T10:52:02.574Z,30.90
2022-07-25T10:56:59.968Z,31.15
2022-07-25T11:01:57.020Z,31.42
2022-07-25T11:06:57.446Z,31.44
2022-07-25T11:11:55.865Z,31.33
2022-07-25T11:16:55.566Z,31.15
2022-07-25T11:21:54.113Z,31.15
2022-07-25T11:26:52.309Z,31.24
2022-07-25T11:31:53.606Z,31.04
2022-07-25T11:36:56.699Z,31.03
2022-07-25T11:42:04.824Z,30.88
2022-07-25T11:47:03.477Z,31.02
2022-07-25T11:52:04.598Z,31.76
2022-07-25T11:57:01.654Z,31.95
2022-07-25T12:02:03.538Z,31.40
2022-07-25T12:07:04.637Z,31.52
2022-07-25T12:12:03.087Z,31.54
2022-07-25T12:17:03.697Z,31.95
2022-07-25T12:22:00.682Z,32.14
2022-07-25T12:26:57.661Z,32.31
2022-07-25T12:31:55.027Z,32.56
2022-07-25T12:36:55.751Z,31.84
2022-07-25T12:41:53.779Z,31.92
2022-07-25T12:47:03.845Z,32.36
2022-07-25T12:52:01.609Z,32.09
2022-07-25T12:56:58.679Z,32.01
2022-07-25T13:01:57.657Z,31.91
2022-07-25T13:07:02.761Z,32.26
2022-07-25T13:12:01.594Z,32.27
2022-07-25T13:22:29.771Z,33.21
2022-07-25T13:27:28.152Z,33.34
2022-07-25T13:32:37.360Z,32.78
2022-07-25T13:37:37.054Z,32.43
2022-07-25T13:42:34.816Z,32.58
2022-07-25T13:47:36.620Z,32.10
2022-07-25T13:52:37.361Z,32.46
2022-07-25T13:57:51.974Z,32.82
2022-07-25T14:02:52.563Z,32.49
2022-07-25T14:07:51.986Z,32.42
2022-07-25T14:12:56.302Z,32.56
2022-07-25T14:17:57.683Z,32.73
2022-07-25T14:22:55.368Z,32.26
2022-07-25T14:27:55.777Z,32.03
2022-07-25T14:33:02.094Z,32.52
2022-07-25T14:38:01.680Z,33.04
2022-07-25T14:43:13.095Z,33.43
2022-07-25T14:53:42.301Z,33.76
2022-07-25T14:58:55.436Z,34.03
2022-07-25T15:03:57.122Z,34.27
2022-07-25T15:09:03.094Z,34.10
2022-07-25T15:14:12.335Z,33.93
2022-07-25T15:19:18.216Z,33.96
2022-07-25T15:25:06.352Z,33.69
2022-07-25T15:30:14.578Z,33.66
2022-07-25T15:41:48.247Z,33.70
2022-07-25T15:47:30.220Z,33.77
2022-07-25T15:58:36.589Z,33.69
2022-07-25T16:03:43.275Z,33.71
2022-07-25T16:09:01.402Z,33.77
2022-07-25T16:14:05.002Z,33.31
2022-07-25T16:19:07.377Z,32.66
2022-07-25T16:24:21.814Z,32.58
2022-07-25T16:34:43.853Z,32.87
2022-07-25T16:39:49.608Z,32.82
2022-07-25T16:44:49.756Z,32.59
2022-07-25T16:50:00.333Z,32.57
2022-07-25T16:55:00.379Z,32.78
2022-07-25T17:00:02.856Z,32.80
2022-07-25T17:05:12.018Z,33.07
2022-07-25T17:10:12.100Z,32.95
2022-07-25T17:15:17.143Z,32.97
2022-07-25T17:20:30.616Z,33.12
2022-07-25T17:25:50.631Z,33.17
2022-07-25T17:30:51.356Z,33.07
2022-07-25T17:41:24.492Z,33.00
2022-07-25T17:46:35.480Z,33.06
2022-07-25T17:51:42.285Z,33.17
2022-07-25T17:56:44.976Z,33.20
2022-07-25T18:02:35.154Z,33.20
2022-07-25T18:14:25.955Z,33.38
2022-07-25T18:19:59.269Z,33.51
2022-07-25T18:25:24.132Z,33.28
2022-07-25T18:30:52.036Z,33.36
2022-07-25T18:36:27.145Z,33.41
2022-07-25T18:53:29.619Z,33.22
2022-07-25T18:59:07.712Z,33.39
2022-07-25T19:10:07.807Z,33.25
2022-07-25T19:15:28.898Z,33.27
2022-07-25T19:20:38.615Z,33.33
2022-07-25T19:26:39.198Z,33.23
2022-07-25T19:32:10.998Z,33.04
2022-07-25T19:37:17.745Z,33.05
2022-07-25T19:42:32.248Z,33.12
2022-07-25T19:47:41.158Z,33.04
2022-07-25T19:52:48.326Z,32.94
2022-07-25T19:57:57.243Z,32.71
2022-07-25T20:03:01.669Z,32.10
2022-07-25T20:08:34.908Z,32.15
2022-07-25T20:13:32.618Z,32.49
2022-07-25T20:18:45.643Z,32.71
2022-07-25T20:24:09.813Z,32.88
2022-07-25T20:29:29.140Z,32.96
2022-07-25T20:34:34.411Z,33.15
2022-07-25T20:39:38.332Z,33.06
2022-07-25T20:44:39.342Z,32.87
2022-07-25T20:49:54.731Z,32.55
2022-07-25T20:55:06.848Z,32.05
2022-07-25T21:00:55.742Z,32.13
2022-07-25T21:06:05.840Z,32.34
2022-07-25T21:11:10.896Z,32.57
2022-07-25T21:16:08.161Z,32.49
2022-07-25T21:21:28.801Z,32.10
2022-07-25T21:26:55.996Z,32.13
2022-07-25T21:32:12.053Z,31.62
2022-07-25T21:37:09.629Z,31.27
2022-07-25T21:42:23.160Z,31.40
2022-07-25T21:47:20.109Z,31.14
2022-07-25T21:52:30.385Z,31.46
2022-07-25T21:57:41.947Z,31.53
2022-07-25T22:03:02.812Z,31.18
2022-07-25T22:08:04.496Z,30.99
2022-07-25T22:13:13.526Z,30.88
2022-07-25T22:18:14.510Z,30.68
2022-07-25T22:23:15.039Z,30.48
2022-07-25T22:28:20.667Z,30.46
2022-07-25T22:33:29.401Z,30.07
2022-07-25T22:38:26.542Z,29.90
2022-07-25T22:43:56.717Z,30.06
2022-07-25T22:49:01.901Z,30.49
2022-07-25T22:54:19.752Z,30.71
2022-07-25T22:59:18.868Z,30.66
2022-07-25T23:04:29.933Z,30.86
2022-07-25T23:09:36.011Z,31.08
2022-07-25T23:14:42.985Z,31.02
2022-07-25T23:20:09.055Z,31.19
2022-07-25T23:25:07.976Z,31.47
2022-07-25T23:30:17.096Z,31.35
2022-07-25T23:35:32.071Z,31.30
2022-07-25T23:40:43.103Z,31.10
2022-07-25T23:45:53.607Z,31.21
2022-07-25T23:51:06.960Z,31.35
2022-07-25T23:56:21.108Z,31.29
